• Join FlightAware (Why Join?)
  • Login
  • US Flag 
02:44PM EDT


 

Airport Tracker/Info


-or-


 

Live Flight TrackerFlight Track Log ✈ EJA982 ✈ 29-Apr-2013 ✈ KSJC - KSMO

Flight Track Log - Related Links

Times and Time Zones

All times are in EDT time to prevent confusion due to time zone crossing. See the EJA982 flight status page for this flight to view local times or setup timezone preferences in your user account.

Time Position Orientation Groundspeed Altitude Reporting Facility
EDT Latitude Longitude Course Direction KTS MPH feet Rate Location/Type
02:03PM 37.4000 -121.9667 127° Southeast 193 222 2,800  Level Northern Cal TRACON
02:04PM 37.4333 -121.9333 38° Northeast 219 252 5,000 1,140 Climbing Northern Cal TRACON
02:05PM 37.4000 -121.8833 130° Southeast 231 266 5,000 1,320 Level Northern Cal TRACON
02:06PM 37.3503 -121.8092 130° Southeast 238 274 7,800 2,460 Climbing Oakland Center
02:07PM 37.2878 -121.7394 138° Southeast 299 344 10,400 2,040 Climbing Oakland Center
02:08PM 37.2096 -121.7611 127° Southeast  Level Estimated
02:08PM 37.2142 -121.6622 140° Southeast 347 399 12,000  Level Oakland Center
02:09PM 37.1342 -121.5714 138° Southeast 382 440 14,600 2,580 Climbing Oakland Center
02:10PM 37.0450 -121.4728 139° Southeast 399 459 17,300 2,340 Climbing Oakland Center
02:11PM 36.9611 -121.3792 138° Southeast 405 466 19,500 1,860 Climbing Oakland Center
02:12PM 36.8725 -121.2839 139° Southeast 419 482 21,200 1,800 Climbing Oakland Center
02:13PM 36.7733 -121.1772 139° Southeast 434 499 23,300 1,920 Climbing Oakland Center
02:14PM 36.6814 -121.0772 139° Southeast 439 505 25,200 1,860 Climbing Oakland Center
02:15PM 36.5867 -120.9756 139° Southeast 448 516 27,100 1,560 Climbing Oakland Center
02:16PM 36.4892 -120.8689 139° Southeast 463 533 28,500 900 Climbing Oakland Center
02:17PM 36.3872 -120.7575 139° Southeast 484 557 29,000 240 Climbing Oakland Center
02:18PM 36.2572 -120.6211 140° Southeast 509 586 29,000  Level Oakland Center
02:19PM 36.1483 -120.5053 139° Southeast 514 592 29,000  Level Oakland Center
02:20PM 36.0403 -120.3867 138° Southeast 521 600 29,000  Level Oakland Center
02:21PM 35.9306 -120.2750 140° Southeast 508 585 29,000  Level Oakland Center
02:22PM 35.8186 -120.1569 139° Southeast 523 602 29,000  Level Oakland Center
02:23PM 35.7053 -120.0381 140° Southeast 528 608 29,000  Level Oakland Center
02:24PM 35.5883 -119.9242 142° Southeast 528 608 29,000 -300 Level Oakland Center
02:25PM 35.4667 -119.8214 145° Southeast 526 605 28,500 -1,020 Descending Oakland Center
02:26PM 35.3494 -119.7208 145° Southeast 514 592 27,000 -1,440 Descending Oakland Center
02:27PM 35.3269 -119.7022 146° Southeast 511 588 26,700 -1,620 Descending Los Angeles Center
02:28PM 35.1892 -119.5839 145° Southeast 503 579 24,900 -1,380 Descending Los Angeles Center
02:29PM 35.0747 -119.4875 145° Southeast 500 575 23,900 -1,680 Descending Los Angeles Center
02:30PM 34.9622 -119.3919 145° Southeast 495 570 21,500 -2,280 Descending Los Angeles Center
02:31PM 34.8597 -119.3042 145° Southeast 454 522 19,200 -2,220 Descending Los Angeles Center
02:32PM 34.7653 -119.2222 145° Southeast 421 484 17,000 -2,100 Descending Los Angeles Center
02:33PM 34.6739 -119.1467 146° Southeast 401 461 14,900 -2,040 Descending Los Angeles Center
02:34PM 34.5819 -119.0711 146° Southeast 347 399 12,900 -1,800 Descending Los Angeles Center
02:35PM 34.5064 -119.0111 147° Southeast 322 371 11,200 -960 Descending Los Angeles Center
02:36PM 34.4400 -118.9494 143° Southeast 304 350 11,000 -840 Descending Los Angeles Center
02:37PM 34.3847 -118.8550 125° Southeast 294 338 9,500 -1,500 Descending Los Angeles Center
02:38PM 34.3478 -118.7719 118° Southeast 282 325 8,000 -1,260 Descending Los Angeles Center
02:39PM 34.3119 -118.6897 118° Southeast 279 321 7,000 -540 Descending Los Angeles Center
02:40PM 34.2739 -118.6050 119° Southeast 286 329 7,000  Level Los Angeles Center
02:41PM 34.2406 -118.5303 118° Southeast 262 302 7,000 -180 Level Los Angeles Center
02:42PM 34.2167 -118.4667 114° Southeast 241 277 6,700 -960 Descending Southern California TRACON
02:43PM 34.2000 -118.3833 104° East 230 265 5,300 -1,380 Descending Southern California TRACON
02:43PM 34.1858 -118.3667 136° Southeast 236 272 5,000 -360 Descending Los Angeles Center
02:44PM 34.1606 -118.3042 116° Southeast 221 254 4,900 -960 Descending Los Angeles Center
02:45PM 34.1106 -118.3275 201° Southwest 207 238 3,100 -1,200 Descending Los Angeles Center
02:46PM 34.0797 -118.3683 228° Southwest 176 203 2,500 -900 Descending Los Angeles Center
02:47PM 34.0533 -118.4042 228° Southwest 153 176 1,300 -1,020 Descending Los Angeles Center
02:48PM 34.0281 -118.4378 228° Southwest 144 166 500 -780 Descending Los Angeles Center